Belmar, New Jersey
Current Conditions -  °F | °C
As of 8:35 AM on Monday 22 Dec 2014 (Local Time) from KBLM Reporting Station
Overcast Overcast  
Wind Chill: 30°   Ceiling: 800
Heat Index: 36°   Visibility: 10mi
Dew Point: 28°   Wind: 7mph
Humidity: 75%   Direction: 340°NNW
Pressure: 30.3"   Gusts: NA
Location:  40.18°N, 74.02°W
Report Text: KBLM 221335Z AUTO 34006KT 10SM OVC008 02/M02 A3030 RMK AO1
Loading
Personal Weather Stations






























Interactive Weather Map New forecast layout! Learn more

10-Day Weather Forecast

Advertisements
Track Severe Weather on mobile